sensor_id;sensor_type;location;lat;lon;timestamp;temperature;humidity
17671;DHT22;8954;48.694;8.940;2022-09-19T00:00:09;8.70;99.90
17671;DHT22;8954;48.694;8.940;2022-09-19T00:02:35;8.70;99.90
17671;DHT22;8954;48.694;8.940;2022-09-19T00:05:00;8.60;99.90
17671;DHT22;8954;48.694;8.940;2022-09-19T00:07:26;8.40;99.90
17671;DHT22;8954;48.694;8.940;2022-09-19T00:09:51;8.40;99.90
17671;DHT22;8954;48.694;8.940;2022-09-19T00:12:17;8.40;99.90
17671;DHT22;8954;48.694;8.940;2022-09-19T00:14:44;8.30;99.90
17671;DHT22;8954;48.694;8.940;2022-09-19T00:17:09;8.40;99.90
17671;DHT22;8954;48.694;8.940;2022-09-19T00:19:37;8.40;99.90
17671;DHT22;8954;48.694;8.940;2022-09-19T00:22:03;8.50;99.90
17671;DHT22;8954;48.694;8.940;2022-09-19T00:24:29;8.50;99.90
17671;DHT22;8954;48.694;8.940;2022-09-19T00:27:23;8.50;99.90
17671;DHT22;8954;48.694;8.940;2022-09-19T00:29:51;8.50;99.90
17671;DHT22;8954;48.694;8.940;2022-09-19T00:32:19;8.50;99.90
17671;DHT22;8954;48.694;8.940;2022-09-19T00:34:48;8.40;99.90
17671;DHT22;8954;48.694;8.940;2022-09-19T00:37:16;8.40;99.90
17671;DHT22;8954;48.694;8.940;2022-09-19T00:39:42;8.30;99.90
17671;DHT22;8954;48.694;8.940;2022-09-19T00:42:19;8.20;99.90
17671;DHT22;8954;48.694;8.940;2022-09-19T00:44:52;8.10;99.90
17671;DHT22;8954;48.694;8.940;2022-09-19T00:47:20;8.00;99.90
17671;DHT22;8954;48.694;8.940;2022-09-19T00:49:52;7.90;99.90
17671;DHT22;8954;48.694;8.940;2022-09-19T00:52:37;7.70;99.90
17671;DHT22;8954;48.694;8.940;2022-09-19T00:55:04;7.50;99.90
17671;DHT22;8954;48.694;8.940;2022-09-19T00:57:41;7.30;99.90
17671;DHT22;8954;48.694;8.940;2022-09-19T01:00:09;7.20;99.90
17671;DHT22;8954;48.694;8.940;2022-09-19T01:02:35;7.00;99.90
17671;DHT22;8954;48.694;8.940;2022-09-19T01:05:03;6.90;99.90
17671;DHT22;8954;48.694;8.940;2022-09-19T01:07:45;6.80;99.90
17671;DHT22;8954;48.694;8.940;2022-09-19T01:13:05;6.60;99.90
17671;DHT22;8954;48.694;8.940;2022-09-19T01:18:07;6.40;99.90
17671;DHT22;8954;48.694;8.940;2022-09-19T01:20:56;6.40;99.90
17671;DHT22;8954;48.694;8.940;2022-09-19T01:31:31;6.00;99.90
17671;DHT22;8954;48.694;8.940;2022-09-19T01:34:43;5.90;99.90
17671;DHT22;8954;48.694;8.940;2022-09-19T01:37:14;5.90;99.90
17671;DHT22;8954;48.694;8.940;2022-09-19T01:39:47;5.90;99.90
17671;DHT22;8954;48.694;8.940;2022-09-19T01:42:18;5.80;99.90
17671;DHT22;8954;48.694;8.940;2022-09-19T01:44:44;5.80;99.90
17671;DHT22;8954;48.694;8.940;2022-09-19T01:50:41;5.70;99.90
17671;DHT22;8954;48.694;8.940;2022-09-19T01:56:12;5.50;99.90
17671;DHT22;8954;48.694;8.940;2022-09-19T01:58:49;5.50;99.90
17671;DHT22;8954;48.694;8.940;2022-09-19T02:04:15;5.50;99.90
17671;DHT22;8954;48.694;8.940;2022-09-19T02:07:20;5.50;99.90
17671;DHT22;8954;48.694;8.940;2022-09-19T02:09:59;5.50;99.90
17671;DHT22;8954;48.694;8.940;2022-09-19T02:12:27;5.50;99.90
17671;DHT22;8954;48.694;8.940;2022-09-19T02:14:55;5.50;99.90
17671;DHT22;8954;48.694;8.940;2022-09-19T02:17:40;5.50;99.90
17671;DHT22;8954;48.694;8.940;2022-09-19T02:20:23;5.40;99.90
17671;DHT22;8954;48.694;8.940;2022-09-19T02:22:55;5.30;99.90
17671;DHT22;8954;48.694;8.940;2022-09-19T02:25:25;5.30;99.90
17671;DHT22;8954;48.694;8.940;2022-09-19T02:28:12;5.40;99.90
17671;DHT22;8954;48.694;8.940;2022-09-19T02:30:40;5.40;99.90
17671;DHT22;8954;48.694;8.940;2022-09-19T02:33:07;5.40;99.90
17671;DHT22;8954;48.694;8.940;2022-09-19T02:35:49;5.40;99.90
17671;DHT22;8954;48.694;8.940;2022-09-19T02:38:24;5.40;99.90
17671;DHT22;8954;48.694;8.940;2022-09-19T02:41:44;5.40;99.90
17671;DHT22;8954;48.694;8.940;2022-09-19T02:46:39;5.30;99.90
17671;DHT22;8954;48.694;8.940;2022-09-19T02:49:59;5.30;99.90
17671;DHT22;8954;48.694;8.940;2022-09-19T02:52:07;5.20;99.90
17671;DHT22;8954;48.694;8.940;2022-09-19T02:54:35;5.20;99.90
17671;DHT22;8954;48.694;8.940;2022-09-19T02:57:08;5.20;99.90
17671;DHT22;8954;48.694;8.940;2022-09-19T02:59:37;5.20;99.90
17671;DHT22;8954;48.694;8.940;2022-09-19T03:02:10;5.20;99.90
17671;DHT22;8954;48.694;8.940;2022-09-19T03:04:40;5.20;99.90
17671;DHT22;8954;48.694;8.940;2022-09-19T03:07:24;5.30;99.90
17671;DHT22;8954;48.694;8.940;2022-09-19T03:12:51;5.30;99.90
17671;DHT22;8954;48.694;8.940;2022-09-19T03:15:24;5.50;99.90
17671;DHT22;8954;48.694;8.940;2022-09-19T03:17:52;5.50;99.90
17671;DHT22;8954;48.694;8.940;2022-09-19T03:20:19;5.60;99.90
17671;DHT22;8954;48.694;8.940;2022-09-19T03:22:49;5.60;99.90
17671;DHT22;8954;48.694;8.940;2022-09-19T03:25:15;5.60;99.90
17671;DHT22;8954;48.694;8.940;2022-09-19T03:27:41;5.60;99.90
17671;DHT22;8954;48.694;8.940;2022-09-19T03:30:12;5.60;99.90
17671;DHT22;8954;48.694;8.940;2022-09-19T03:32:38;5.70;99.90
17671;DHT22;8954;48.694;8.940;2022-09-19T03:35:06;5.80;99.90
17671;DHT22;8954;48.694;8.940;2022-09-19T03:37:32;5.90;99.90
17671;DHT22;8954;48.694;8.940;2022-09-19T03:39:59;6.10;99.90
17671;DHT22;8954;48.694;8.940;2022-09-19T03:42:26;6.20;99.90
17671;DHT22;8954;48.694;8.940;2022-09-19T03:44:52;6.30;99.90
17671;DHT22;8954;48.694;8.940;2022-09-19T03:47:18;6.50;99.90
17671;DHT22;8954;48.694;8.940;2022-09-19T03:49:49;6.60;99.90
17671;DHT22;8954;48.694;8.940;2022-09-19T03:52:19;6.70;99.90
17671;DHT22;8954;48.694;8.940;2022-09-19T03:54:45;6.80;99.90
17671;DHT22;8954;48.694;8.940;2022-09-19T03:57:12;6.90;99.90
17671;DHT22;8954;48.694;8.940;2022-09-19T03:59:39;7.00;99.90
17671;DHT22;8954;48.694;8.940;2022-09-19T04:02:08;7.10;99.90
17671;DHT22;8954;48.694;8.940;2022-09-19T04:04:34;7.10;99.90
17671;DHT22;8954;48.694;8.940;2022-09-19T04:07:00;7.20;99.90
17671;DHT22;8954;48.694;8.940;2022-09-19T04:09:27;7.20;99.90
17671;DHT22;8954;48.694;8.940;2022-09-19T04:11:52;7.20;99.90
17671;DHT22;8954;48.694;8.940;2022-09-19T04:14:21;7.20;99.90
17671;DHT22;8954;48.694;8.940;2022-09-19T04:16:46;7.20;99.90
17671;DHT22;8954;48.694;8.940;2022-09-19T04:19:12;7.10;99.90
17671;DHT22;8954;48.694;8.940;2022-09-19T04:21:39;7.00;99.90
17671;DHT22;8954;48.694;8.940;2022-09-19T04:24:12;6.90;99.90
17671;DHT22;8954;48.694;8.940;2022-09-19T04:26:39;6.90;99.90
17671;DHT22;8954;48.694;8.940;2022-09-19T04:29:09;7.00;99.90
17671;DHT22;8954;48.694;8.940;2022-09-19T04:31:35;7.10;99.90
17671;DHT22;8954;48.694;8.940;2022-09-19T04:34:05;7.20;99.90
17671;DHT22;8954;48.694;8.940;2022-09-19T04:36:30;7.30;99.90
17671;DHT22;8954;48.694;8.940;2022-09-19T04:38:58;7.30;99.90
17671;DHT22;8954;48.694;8.940;2022-09-19T04:41:30;7.40;99.90
17671;DHT22;8954;48.694;8.940;2022-09-19T04:43:57;7.50;99.90
17671;DHT22;8954;48.694;8.940;2022-09-19T04:46:23;7.60;99.90
17671;DHT22;8954;48.694;8.940;2022-09-19T04:48:49;7.60;99.90
17671;DHT22;8954;48.694;8.940;2022-09-19T04:51:17;7.70;99.90
17671;DHT22;8954;48.694;8.940;2022-09-19T04:53:43;7.70;99.90
17671;DHT22;8954;48.694;8.940;2022-09-19T04:56:09;7.80;99.90
17671;DHT22;8954;48.694;8.940;2022-09-19T04:58:36;7.90;99.90
17671;DHT22;8954;48.694;8.940;2022-09-19T05:01:03;7.80;99.90
17671;DHT22;8954;48.694;8.940;2022-09-19T05:03:29;7.90;99.90
17671;DHT22;8954;48.694;8.940;2022-09-19T05:05:56;7.90;99.90
17671;DHT22;8954;48.694;8.940;2022-09-19T05:08:28;7.90;99.90
17671;DHT22;8954;48.694;8.940;2022-09-19T05:10:56;7.80;99.90
17671;DHT22;8954;48.694;8.940;2022-09-19T05:13:23;7.80;99.90
17671;DHT22;8954;48.694;8.940;2022-09-19T05:15:49;7.80;99.90
17671;DHT22;8954;48.694;8.940;2022-09-19T05:18:17;7.90;99.90
17671;DHT22;8954;48.694;8.940;2022-09-19T05:20:44;7.90;99.90
17671;DHT22;8954;48.694;8.940;2022-09-19T05:23:10;8.00;99.90
17671;DHT22;8954;48.694;8.940;2022-09-19T05:25:37;8.10;99.90
17671;DHT22;8954;48.694;8.940;2022-09-19T05:28:07;8.10;99.90
17671;DHT22;8954;48.694;8.940;2022-09-19T05:30:36;8.10;99.90
17671;DHT22;8954;48.694;8.940;2022-09-19T05:33:03;8.20;99.90
17671;DHT22;8954;48.694;8.940;2022-09-19T05:35:30;8.20;99.90
17671;DHT22;8954;48.694;8.940;2022-09-19T05:37:56;8.30;99.90
17671;DHT22;8954;48.694;8.940;2022-09-19T05:40:24;8.40;99.90
17671;DHT22;8954;48.694;8.940;2022-09-19T05:42:51;8.40;99.90
17671;DHT22;8954;48.694;8.940;2022-09-19T05:45:17;8.40;99.90
17671;DHT22;8954;48.694;8.940;2022-09-19T05:47:43;8.50;99.90
17671;DHT22;8954;48.694;8.940;2022-09-19T05:50:12;8.60;99.90
17671;DHT22;8954;48.694;8.940;2022-09-19T05:52:40;8.60;99.90
17671;DHT22;8954;48.694;8.940;2022-09-19T05:55:26;8.60;99.90
17671;DHT22;8954;48.694;8.940;2022-09-19T05:57:54;8.60;99.90
17671;DHT22;8954;48.694;8.940;2022-09-19T06:00:22;8.60;99.90
17671;DHT22;8954;48.694;8.940;2022-09-19T06:02:54;8.70;99.90
17671;DHT22;8954;48.694;8.940;2022-09-19T06:05:20;8.80;99.90
17671;DHT22;8954;48.694;8.940;2022-09-19T06:07:45;8.90;99.90
17671;DHT22;8954;48.694;8.940;2022-09-19T06:10:12;8.90;99.90
17671;DHT22;8954;48.694;8.940;2022-09-19T06:12:38;9.00;99.90
17671;DHT22;8954;48.694;8.940;2022-09-19T06:15:04;9.10;99.90
17671;DHT22;8954;48.694;8.940;2022-09-19T06:17:30;9.20;99.90
17671;DHT22;8954;48.694;8.940;2022-09-19T06:19:56;9.30;99.90
17671;DHT22;8954;48.694;8.940;2022-09-19T06:22:22;9.30;99.90
17671;DHT22;8954;48.694;8.940;2022-09-19T06:24:47;9.40;99.90
17671;DHT22;8954;48.694;8.940;2022-09-19T06:27:13;9.50;99.90
17671;DHT22;8954;48.694;8.940;2022-09-19T06:29:38;9.60;99.90
17671;DHT22;8954;48.694;8.940;2022-09-19T06:32:04;9.60;99.90
17671;DHT22;8954;48.694;8.940;2022-09-19T06:34:30;9.70;99.90
17671;DHT22;8954;48.694;8.940;2022-09-19T06:36:56;9.70;99.90
17671;DHT22;8954;48.694;8.940;2022-09-19T06:39:22;9.80;99.90
17671;DHT22;8954;48.694;8.940;2022-09-19T06:41:47;9.80;99.90
17671;DHT22;8954;48.694;8.940;2022-09-19T06:44:13;9.90;99.90
17671;DHT22;8954;48.694;8.940;2022-09-19T06:46:39;10.00;99.90
17671;DHT22;8954;48.694;8.940;2022-09-19T06:49:05;10.20;99.90
17671;DHT22;8954;48.694;8.940;2022-09-19T06:51:35;10.20;99.90
17671;DHT22;8954;48.694;8.940;2022-09-19T06:54:01;10.30;99.90
17671;DHT22;8954;48.694;8.940;2022-09-19T06:56:26;10.40;99.90
17671;DHT22;8954;48.694;8.940;2022-09-19T06:58:52;10.40;99.90
17671;DHT22;8954;48.694;8.940;2022-09-19T07:01:18;10.50;99.90
17671;DHT22;8954;48.694;8.940;2022-09-19T07:03:44;10.60;99.90
17671;DHT22;8954;48.694;8.940;2022-09-19T07:06:09;10.70;99.90
17671;DHT22;8954;48.694;8.940;2022-09-19T07:08:35;10.80;99.90
17671;DHT22;8954;48.694;8.940;2022-09-19T07:11:01;10.80;99.90
17671;DHT22;8954;48.694;8.940;2022-09-19T07:13:27;10.90;99.90
17671;DHT22;8954;48.694;8.940;2022-09-19T07:15:54;11.00;99.90
17671;DHT22;8954;48.694;8.940;2022-09-19T07:18:22;11.00;99.90
17671;DHT22;8954;48.694;8.940;2022-09-19T07:20:49;11.10;99.90
17671;DHT22;8954;48.694;8.940;2022-09-19T07:23:16;11.40;99.90
17671;DHT22;8954;48.694;8.940;2022-09-19T07:25:43;11.60;99.90
17671;DHT22;8954;48.694;8.940;2022-09-19T07:28:11;11.80;99.90
17671;DHT22;8954;48.694;8.940;2022-09-19T07:30:38;11.80;99.90
17671;DHT22;8954;48.694;8.940;2022-09-19T07:33:06;12.00;99.90
17671;DHT22;8954;48.694;8.940;2022-09-19T07:35:36;12.00;99.90
17671;DHT22;8954;48.694;8.940;2022-09-19T07:38:04;12.10;99.90
17671;DHT22;8954;48.694;8.940;2022-09-19T07:40:30;12.40;99.90
17671;DHT22;8954;48.694;8.940;2022-09-19T07:42:59;12.80;99.90
17671;DHT22;8954;48.694;8.940;2022-09-19T07:45:27;13.00;99.90
17671;DHT22;8954;48.694;8.940;2022-09-19T07:47:53;13.20;99.90
17671;DHT22;8954;48.694;8.940;2022-09-19T07:50:21;13.40;99.90
17671;DHT22;8954;48.694;8.940;2022-09-19T07:52:47;13.80;99.90
17671;DHT22;8954;48.694;8.940;2022-09-19T07:55:13;14.00;99.90
17671;DHT22;8954;48.694;8.940;2022-09-19T07:57:49;13.90;99.90
17671;DHT22;8954;48.694;8.940;2022-09-19T08:00:16;13.90;99.90
17671;DHT22;8954;48.694;8.940;2022-09-19T08:02:42;13.90;99.90
17671;DHT22;8954;48.694;8.940;2022-09-19T08:05:08;14.00;99.90
17671;DHT22;8954;48.694;8.940;2022-09-19T08:07:34;14.10;99.90
17671;DHT22;8954;48.694;8.940;2022-09-19T08:09:59;14.30;99.90
17671;DHT22;8954;48.694;8.940;2022-09-19T08:12:27;14.30;99.90
17671;DHT22;8954;48.694;8.940;2022-09-19T08:14:52;14.10;99.90
17671;DHT22;8954;48.694;8.940;2022-09-19T08:17:19;14.10;99.90
17671;DHT22;8954;48.694;8.940;2022-09-19T08:19:45;14.10;99.90
17671;DHT22;8954;48.694;8.940;2022-09-19T08:22:11;14.30;99.90
17671;DHT22;8954;48.694;8.940;2022-09-19T08:24:37;14.20;99.90
17671;DHT22;8954;48.694;8.940;2022-09-19T08:27:03;14.20;99.90
17671;DHT22;8954;48.694;8.940;2022-09-19T08:29:28;14.00;99.90
17671;DHT22;8954;48.694;8.940;2022-09-19T08:31:54;13.90;99.90
17671;DHT22;8954;48.694;8.940;2022-09-19T08:34:20;13.90;99.90
17671;DHT22;8954;48.694;8.940;2022-09-19T08:36:45;14.00;99.90
17671;DHT22;8954;48.694;8.940;2022-09-19T08:39:11;14.20;99.90
17671;DHT22;8954;48.694;8.940;2022-09-19T08:44:23;14.50;99.90
17671;DHT22;8954;48.694;8.940;2022-09-19T08:49:38;15.00;99.90
17671;DHT22;8954;48.694;8.940;2022-09-19T08:54:50;15.30;99.90
17671;DHT22;8954;48.694;8.940;2022-09-19T08:57:31;15.50;99.90
17671;DHT22;8954;48.694;8.940;2022-09-19T09:00:02;15.50;99.90
17671;DHT22;8954;48.694;8.940;2022-09-19T09:05:27;15.20;99.90
17671;DHT22;8954;48.694;8.940;2022-09-19T09:07:59;15.20;99.90
17671;DHT22;8954;48.694;8.940;2022-09-19T09:18:43;16.00;99.90
17671;DHT22;8954;48.694;8.940;2022-09-19T09:24:21;18.00;99.90
17671;DHT22;8954;48.694;8.940;2022-09-19T09:26:49;18.20;99.90
17671;DHT22;8954;48.694;8.940;2022-09-19T09:29:23;18.60;99.90
17671;DHT22;8954;48.694;8.940;2022-09-19T09:31:57;18.70;99.90
17671;DHT22;8954;48.694;8.940;2022-09-19T09:34:28;18.30;99.90
17671;DHT22;8954;48.694;8.940;2022-09-19T09:37:02;17.70;99.90
17671;DHT22;8954;48.694;8.940;2022-09-19T09:42:05;17.00;99.90
17671;DHT22;8954;48.694;8.940;2022-09-19T09:45:37;16.70;99.90
17671;DHT22;8954;48.694;8.940;2022-09-19T09:48:13;16.50;99.90
17671;DHT22;8954;48.694;8.940;2022-09-19T09:57:06;16.30;99.90
17671;DHT22;8954;48.694;8.940;2022-09-19T09:59:39;16.60;99.90
17671;DHT22;8954;48.694;8.940;2022-09-19T10:05:44;16.80;99.90
17671;DHT22;8954;48.694;8.940;2022-09-19T10:08:19;16.60;99.90
17671;DHT22;8954;48.694;8.940;2022-09-19T10:11:20;16.20;99.90
17671;DHT22;8954;48.694;8.940;2022-09-19T10:14:02;15.90;99.90
17671;DHT22;8954;48.694;8.940;2022-09-19T10:16:33;15.80;99.90
17671;DHT22;8954;48.694;8.940;2022-09-19T10:19:52;15.70;99.90
17671;DHT22;8954;48.694;8.940;2022-09-19T10:21:55;15.80;99.90
17671;DHT22;8954;48.694;8.940;2022-09-19T10:24:45;16.00;99.90
17671;DHT22;8954;48.694;8.940;2022-09-19T10:27:13;16.00;99.90
17671;DHT22;8954;48.694;8.940;2022-09-19T10:29:57;15.80;99.90
17671;DHT22;8954;48.694;8.940;2022-09-19T10:32:34;15.60;99.90
17671;DHT22;8954;48.694;8.940;2022-09-19T10:38:09;14.80;99.90
17671;DHT22;8954;48.694;8.940;2022-09-19T10:40:58;14.60;99.90
17671;DHT22;8954;48.694;8.940;2022-09-19T10:43:38;14.80;99.90
17671;DHT22;8954;48.694;8.940;2022-09-19T10:46:06;15.20;99.90
17671;DHT22;8954;48.694;8.940;2022-09-19T10:48:35;15.70;99.90
17671;DHT22;8954;48.694;8.940;2022-09-19T10:51:09;16.20;99.90
17671;DHT22;8954;48.694;8.940;2022-09-19T10:53:37;16.60;99.90
17671;DHT22;8954;48.694;8.940;2022-09-19T10:56:25;17.10;99.90
17671;DHT22;8954;48.694;8.940;2022-09-19T10:59:04;17.60;99.90
17671;DHT22;8954;48.694;8.940;2022-09-19T11:01:31;20.20;99.90
17671;DHT22;8954;48.694;8.940;2022-09-19T11:06:29;25.40;90.40
17671;DHT22;8954;48.694;8.940;2022-09-19T11:08:55;27.70;77.90
17671;DHT22;8954;48.694;8.940;2022-09-19T11:14:20;27.50;69.90
17671;DHT22;8954;48.694;8.940;2022-09-19T11:33:39;22.30;78.70
17671;DHT22;8954;48.694;8.940;2022-09-19T11:36:22;21.70;80.70
17671;DHT22;8954;48.694;8.940;2022-09-19T11:38:55;21.10;84.10
17671;DHT22;8954;48.694;8.940;2022-09-19T11:57:46;18.30;93.60
17671;DHT22;8954;48.694;8.940;2022-09-19T12:00:21;18.50;93.50
17671;DHT22;8954;48.694;8.940;2022-09-19T12:09:12;19.10;92.90
17671;DHT22;8954;48.694;8.940;2022-09-19T12:14:15;19.60;92.30
17671;DHT22;8954;48.694;8.940;2022-09-19T12:16:49;19.40;92.30
17671;DHT22;8954;48.694;8.940;2022-09-19T12:19:22;18.80;92.30
17671;DHT22;8954;48.694;8.940;2022-09-19T12:21:56;18.40;92.80
17671;DHT22;8954;48.694;8.940;2022-09-19T12:24:27;18.50;93.40
17671;DHT22;8954;48.694;8.940;2022-09-19T12:32:27;20.70;91.10
17671;DHT22;8954;48.694;8.940;2022-09-19T12:43:36;20.20;91.90
17671;DHT22;8954;48.694;8.940;2022-09-19T12:49:01;20.10;91.30
17671;DHT22;8954;48.694;8.940;2022-09-19T12:54:57;19.00;92.50
17671;DHT22;8954;48.694;8.940;2022-09-19T12:57:32;18.70;92.80
17671;DHT22;8954;48.694;8.940;2022-09-19T13:00:05;18.10;94.00
17671;DHT22;8954;48.694;8.940;2022-09-19T13:02:47;17.70;94.30
17671;DHT22;8954;48.694;8.940;2022-09-19T13:05:38;17.40;95.40
17671;DHT22;8954;48.694;8.940;2022-09-19T13:08:08;17.50;95.60
17671;DHT22;8954;48.694;8.940;2022-09-19T13:15:57;17.90;94.90
17671;DHT22;8954;48.694;8.940;2022-09-19T13:18:25;18.60;94.30
17671;DHT22;8954;48.694;8.940;2022-09-19T13:21:43;19.40;93.20
17671;DHT22;8954;48.694;8.940;2022-09-19T13:24:29;20.10;91.80
17671;DHT22;8954;48.694;8.940;2022-09-19T13:26:56;20.60;91.20
17671;DHT22;8954;48.694;8.940;2022-09-19T13:37:45;21.70;86.40
17671;DHT22;8954;48.694;8.940;2022-09-19T13:42:27;20.70;87.60
17671;DHT22;8954;48.694;8.940;2022-09-19T13:45:12;20.30;88.80
17671;DHT22;8954;48.694;8.940;2022-09-19T13:47:44;20.20;89.70
17671;DHT22;8954;48.694;8.940;2022-09-19T13:50:26;20.40;88.50
17671;DHT22;8954;48.694;8.940;2022-09-19T13:52:55;20.80;87.20
17671;DHT22;8954;48.694;8.940;2022-09-19T13:55:34;21.30;87.80
17671;DHT22;8954;48.694;8.940;2022-09-19T13:58:28;21.80;84.30
17671;DHT22;8954;48.694;8.940;2022-09-19T14:01:17;22.70;82.20
17671;DHT22;8954;48.694;8.940;2022-09-19T14:03:57;22.50;80.50
17671;DHT22;8954;48.694;8.940;2022-09-19T14:06:59;22.60;79.70
17671;DHT22;8954;48.694;8.940;2022-09-19T14:09:40;22.80;80.60
17671;DHT22;8954;48.694;8.940;2022-09-19T14:23:14;20.80;85.20
17671;DHT22;8954;48.694;8.940;2022-09-19T14:25:43;24.00;80.10
17671;DHT22;8954;48.694;8.940;2022-09-19T14:47:50;20.60;83.80
17671;DHT22;8954;48.694;8.940;2022-09-19T14:50:25;19.90;83.70
17671;DHT22;8954;48.694;8.940;2022-09-19T14:53:05;19.30;85.70
17671;DHT22;8954;48.694;8.940;2022-09-19T14:55:42;18.80;87.60
17671;DHT22;8954;48.694;8.940;2022-09-19T14:58:27;18.40;90.00
17671;DHT22;8954;48.694;8.940;2022-09-19T15:01:05;18.00;90.60
17671;DHT22;8954;48.694;8.940;2022-09-19T15:03:48;17.80;91.20
17671;DHT22;8954;48.694;8.940;2022-09-19T15:06:22;17.40;92.10
17671;DHT22;8954;48.694;8.940;2022-09-19T15:08:51;17.10;92.80
17671;DHT22;8954;48.694;8.940;2022-09-19T15:11:17;17.00;93.50
17671;DHT22;8954;48.694;8.940;2022-09-19T15:13:46;17.00;93.90
17671;DHT22;8954;48.694;8.940;2022-09-19T15:16:12;17.10;94.00
17671;DHT22;8954;48.694;8.940;2022-09-19T15:18:42;17.00;94.30
17671;DHT22;8954;48.694;8.940;2022-09-19T15:21:14;16.80;94.30
17671;DHT22;8954;48.694;8.940;2022-09-19T15:23:42;16.50;94.90
17671;DHT22;8954;48.694;8.940;2022-09-19T15:26:15;16.20;95.60
17671;DHT22;8954;48.694;8.940;2022-09-19T15:28:41;15.90;96.70
17671;DHT22;8954;48.694;8.940;2022-09-19T15:31:21;15.60;97.70
17671;DHT22;8954;48.694;8.940;2022-09-19T15:33:56;15.40;99.90
17671;DHT22;8954;48.694;8.940;2022-09-19T15:36:27;15.20;99.90
17671;DHT22;8954;48.694;8.940;2022-09-19T15:38:56;15.20;99.90
17671;DHT22;8954;48.694;8.940;2022-09-19T15:41:28;15.30;99.90
17671;DHT22;8954;48.694;8.940;2022-09-19T15:43:56;15.50;99.90
17671;DHT22;8954;48.694;8.940;2022-09-19T15:48:57;15.70;99.90
17671;DHT22;8954;48.694;8.940;2022-09-19T15:51:28;15.60;99.90
17671;DHT22;8954;48.694;8.940;2022-09-19T15:53:56;15.40;99.90
17671;DHT22;8954;48.694;8.940;2022-09-19T15:56:22;15.00;99.90
17671;DHT22;8954;48.694;8.940;2022-09-19T15:58:56;14.70;99.90
17671;DHT22;8954;48.694;8.940;2022-09-19T16:01:26;14.30;99.90
17671;DHT22;8954;48.694;8.940;2022-09-19T16:04:00;14.10;99.90
17671;DHT22;8954;48.694;8.940;2022-09-19T16:06:41;13.90;99.90
17671;DHT22;8954;48.694;8.940;2022-09-19T16:09:43;13.70;99.90
17671;DHT22;8954;48.694;8.940;2022-09-19T16:15:01;13.20;99.90
17671;DHT22;8954;48.694;8.940;2022-09-19T16:23:03;12.90;99.90
17671;DHT22;8954;48.694;8.940;2022-09-19T16:28:16;12.80;99.90
17671;DHT22;8954;48.694;8.940;2022-09-19T16:30:57;12.80;99.90
17671;DHT22;8954;48.694;8.940;2022-09-19T16:33:36;13.00;99.90
17671;DHT22;8954;48.694;8.940;2022-09-19T16:36:07;13.20;99.90
17671;DHT22;8954;48.694;8.940;2022-09-19T16:38:34;13.20;99.90
17671;DHT22;8954;48.694;8.940;2022-09-19T16:41:05;13.10;99.90
17671;DHT22;8954;48.694;8.940;2022-09-19T16:46:09;12.80;99.90
17671;DHT22;8954;48.694;8.940;2022-09-19T16:48:36;12.70;99.90
17671;DHT22;8954;48.694;8.940;2022-09-19T16:51:03;12.50;99.90
17671;DHT22;8954;48.694;8.940;2022-09-19T16:53:34;12.50;99.90
17671;DHT22;8954;48.694;8.940;2022-09-19T16:56:00;12.50;99.90
17671;DHT22;8954;48.694;8.940;2022-09-19T16:58:26;12.50;99.90
17671;DHT22;8954;48.694;8.940;2022-09-19T17:00:52;12.60;99.90
17671;DHT22;8954;48.694;8.940;2022-09-19T17:03:18;12.50;99.90
17671;DHT22;8954;48.694;8.940;2022-09-19T17:05:45;12.50;99.90
17671;DHT22;8954;48.694;8.940;2022-09-19T17:08:11;12.40;99.90
17671;DHT22;8954;48.694;8.940;2022-09-19T17:10:38;12.30;99.90
17671;DHT22;8954;48.694;8.940;2022-09-19T17:13:05;12.20;99.90
17671;DHT22;8954;48.694;8.940;2022-09-19T17:15:51;12.10;99.90
17671;DHT22;8954;48.694;8.940;2022-09-19T17:18:20;12.00;99.90
17671;DHT22;8954;48.694;8.940;2022-09-19T17:20:46;11.80;99.90
17671;DHT22;8954;48.694;8.940;2022-09-19T17:23:17;11.60;99.90
17671;DHT22;8954;48.694;8.940;2022-09-19T17:25:44;11.40;99.90
17671;DHT22;8954;48.694;8.940;2022-09-19T17:28:12;11.30;99.90
17671;DHT22;8954;48.694;8.940;2022-09-19T17:30:39;11.20;99.90
17671;DHT22;8954;48.694;8.940;2022-09-19T17:33:05;11.10;99.90
17671;DHT22;8954;48.694;8.940;2022-09-19T17:35:31;11.00;99.90
17671;DHT22;8954;48.694;8.940;2022-09-19T17:37:56;11.00;99.90
17671;DHT22;8954;48.694;8.940;2022-09-19T17:40:23;11.00;99.90
17671;DHT22;8954;48.694;8.940;2022-09-19T17:42:51;10.90;99.90
17671;DHT22;8954;48.694;8.940;2022-09-19T17:45:17;10.90;99.90
17671;DHT22;8954;48.694;8.940;2022-09-19T17:47:44;10.90;99.90
17671;DHT22;8954;48.694;8.940;2022-09-19T17:50:10;10.90;99.90
17671;DHT22;8954;48.694;8.940;2022-09-19T17:52:36;10.70;99.90
17671;DHT22;8954;48.694;8.940;2022-09-19T17:55:02;10.60;99.90
17671;DHT22;8954;48.694;8.940;2022-09-19T17:57:28;10.60;99.90
17671;DHT22;8954;48.694;8.940;2022-09-19T17:59:53;10.60;99.90
17671;DHT22;8954;48.694;8.940;2022-09-19T18:02:19;10.50;99.90
17671;DHT22;8954;48.694;8.940;2022-09-19T18:05:04;10.30;99.90
17671;DHT22;8954;48.694;8.940;2022-09-19T18:07:30;10.10;99.90
17671;DHT22;8954;48.694;8.940;2022-09-19T18:09:59;9.90;99.90
17671;DHT22;8954;48.694;8.940;2022-09-19T18:12:24;9.70;99.90
17671;DHT22;8954;48.694;8.940;2022-09-19T18:14:50;9.60;99.90
17671;DHT22;8954;48.694;8.940;2022-09-19T18:17:16;9.40;99.90
17671;DHT22;8954;48.694;8.940;2022-09-19T18:19:44;9.30;99.90
17671;DHT22;8954;48.694;8.940;2022-09-19T18:22:10;9.20;99.90
17671;DHT22;8954;48.694;8.940;2022-09-19T18:24:36;9.10;99.90
17671;DHT22;8954;48.694;8.940;2022-09-19T18:27:02;9.20;99.90
17671;DHT22;8954;48.694;8.940;2022-09-19T18:29:27;9.00;99.90
17671;DHT22;8954;48.694;8.940;2022-09-19T18:31:56;9.00;99.90
17671;DHT22;8954;48.694;8.940;2022-09-19T18:34:22;8.90;99.90
17671;DHT22;8954;48.694;8.940;2022-09-19T18:36:48;8.90;99.90
17671;DHT22;8954;48.694;8.940;2022-09-19T18:39:14;8.90;99.90
17671;DHT22;8954;48.694;8.940;2022-09-19T18:41:40;8.90;99.90
17671;DHT22;8954;48.694;8.940;2022-09-19T18:44:06;8.90;99.90
17671;DHT22;8954;48.694;8.940;2022-09-19T18:46:32;8.80;99.90
17671;DHT22;8954;48.694;8.940;2022-09-19T18:48:58;8.70;99.90
17671;DHT22;8954;48.694;8.940;2022-09-19T18:51:26;8.70;99.90
17671;DHT22;8954;48.694;8.940;2022-09-19T18:53:55;8.60;99.90
17671;DHT22;8954;48.694;8.940;2022-09-19T18:56:24;8.50;99.90
17671;DHT22;8954;48.694;8.940;2022-09-19T18:58:54;8.40;99.90
17671;DHT22;8954;48.694;8.940;2022-09-19T19:01:21;8.30;99.90
17671;DHT22;8954;48.694;8.940;2022-09-19T19:03:57;8.20;99.90
17671;DHT22;8954;48.694;8.940;2022-09-19T19:06:25;8.10;99.90
17671;DHT22;8954;48.694;8.940;2022-09-19T19:08:52;8.00;99.90
17671;DHT22;8954;48.694;8.940;2022-09-19T19:11:21;7.90;99.90
17671;DHT22;8954;48.694;8.940;2022-09-19T19:13:47;7.90;99.90
17671;DHT22;8954;48.694;8.940;2022-09-19T19:16:15;7.90;99.90
17671;DHT22;8954;48.694;8.940;2022-09-19T19:18:43;7.90;99.90
17671;DHT22;8954;48.694;8.940;2022-09-19T19:21:12;7.80;99.90
17671;DHT22;8954;48.694;8.940;2022-09-19T19:23:39;7.70;99.90
17671;DHT22;8954;48.694;8.940;2022-09-19T19:26:05;7.70;99.90
17671;DHT22;8954;48.694;8.940;2022-09-19T19:28:31;7.60;99.90
17671;DHT22;8954;48.694;8.940;2022-09-19T19:30:59;7.60;99.90